createdAt,value
2023-03-03T00:00:34.348Z,1008.26
2023-03-03T00:05:34.226Z,1008.42
2023-03-03T00:10:34.199Z,1008.26
2023-03-03T00:15:34.143Z,1008.36
2023-03-03T00:20:34.057Z,1008.32
2023-03-03T00:25:50.250Z,1008.40
2023-03-03T00:30:34.022Z,1008.46
2023-03-03T00:35:33.906Z,1008.43
2023-03-03T00:40:33.787Z,1008.51
2023-03-03T00:45:33.715Z,1008.44
2023-03-03T00:50:33.672Z,1008.40
2023-03-03T00:55:33.658Z,1008.44
2023-03-03T01:00:34.257Z,1008.43
2023-03-03T01:05:33.444Z,1008.45
2023-03-03T01:10:33.425Z,1008.44
2023-03-03T01:15:33.433Z,1008.52
2023-03-03T01:20:33.273Z,1008.57
2023-03-03T01:25:33.251Z,1008.59
2023-03-03T01:30:33.195Z,1008.55
2023-03-03T01:35:33.137Z,1008.52
2023-03-03T01:40:33.072Z,1008.54
2023-03-03T01:45:32.991Z,1008.52
2023-03-03T01:50:32.919Z,1008.44
2023-03-03T01:55:32.934Z,1008.48
2023-03-03T02:00:32.765Z,1008.42
2023-03-03T02:05:32.706Z,1008.41
2023-03-03T02:10:32.720Z,1008.42
2023-03-03T02:15:32.597Z,1008.38
2023-03-03T02:20:32.624Z,1008.36
2023-03-03T02:25:32.492Z,1008.50
2023-03-03T02:30:32.366Z,1008.40
2023-03-03T02:35:32.392Z,1008.36
2023-03-03T02:40:32.304Z,1008.41
2023-03-03T02:45:32.195Z,1008.37
2023-03-03T02:50:32.799Z,1008.42
2023-03-03T02:55:32.050Z,1008.39
2023-03-03T03:00:32.055Z,1008.39
2023-03-03T03:05:31.976Z,1008.54
2023-03-03T03:10:31.939Z,1008.54
2023-03-03T03:15:31.783Z,1008.53
2023-03-03T03:20:31.777Z,1008.51
2023-03-03T03:25:31.754Z,1008.65
2023-03-03T03:30:31.613Z,1008.60
2023-03-03T03:35:31.939Z,1008.58
2023-03-03T03:40:31.494Z,1008.52
2023-03-03T03:45:31.402Z,1008.44
2023-03-03T03:50:31.444Z,1008.50
2023-03-03T03:55:31.333Z,1008.48
2023-03-03T04:00:31.222Z,1008.69
2023-03-03T04:05:31.201Z,1008.70
2023-03-03T04:10:31.117Z,1008.66
2023-03-03T04:15:31.162Z,1008.86
2023-03-03T04:20:30.959Z,1008.85
2023-03-03T04:25:30.927Z,1008.74
2023-03-03T04:30:30.939Z,1008.82
2023-03-03T04:35:30.821Z,1008.82
2023-03-03T04:40:30.724Z,1008.95
2023-03-03T04:45:30.637Z,1009.05
2023-03-03T04:50:30.668Z,1008.98
2023-03-03T04:55:30.520Z,1009.02
2023-03-03T05:00:30.577Z,1008.92
2023-03-03T05:05:30.514Z,1009.04
2023-03-03T05:10:30.337Z,1008.96
2023-03-03T05:15:30.263Z,1009.08
2023-03-03T05:20:30.326Z,1008.89
2023-03-03T05:25:30.160Z,1008.83
2023-03-03T05:30:30.208Z,1008.98
2023-03-03T05:35:30.201Z,1008.95
2023-03-03T05:40:30.036Z,1008.94
2023-03-03T05:45:29.907Z,1009.08
2023-03-03T05:50:29.876Z,1009.10
2023-03-03T05:55:29.778Z,1009.09
2023-03-03T06:00:29.728Z,1009.00
2023-03-03T06:05:29.704Z,1009.13
2023-03-03T06:10:29.604Z,1009.05
2023-03-03T06:15:29.538Z,1008.98
2023-03-03T06:20:29.409Z,1008.99
2023-03-03T06:25:29.397Z,1009.01
2023-03-03T06:30:29.310Z,1009.01
2023-03-03T06:35:29.217Z,1009.11
2023-03-03T06:40:29.200Z,1009.29
2023-03-03T06:45:29.205Z,1009.43
2023-03-03T06:50:29.029Z,1009.35
2023-03-03T06:55:28.983Z,1009.30
2023-03-03T07:00:30.985Z,1009.39
2023-03-03T07:05:28.874Z,1009.43
2023-03-03T07:10:28.781Z,1009.45
2023-03-03T07:15:28.708Z,1009.49
2023-03-03T07:20:28.720Z,1009.42
2023-03-03T07:25:28.630Z,1009.54
2023-03-03T07:30:28.598Z,1009.56
2023-03-03T07:35:28.513Z,1009.69
2023-03-03T07:40:28.491Z,1009.79
2023-03-03T07:45:28.365Z,1009.76
2023-03-03T07:50:28.346Z,1009.86
2023-03-03T07:55:28.218Z,1009.74
2023-03-03T08:00:28.260Z,1009.74
2023-03-03T08:05:28.160Z,1009.75
2023-03-03T08:10:28.144Z,1009.81
2023-03-03T08:15:28.015Z,1009.78
2023-03-03T08:20:27.945Z,1009.76
2023-03-03T08:25:27.841Z,1009.68
2023-03-03T08:30:27.816Z,1009.71
2023-03-03T08:35:27.787Z,1009.65
2023-03-03T08:40:27.654Z,1009.83
2023-03-03T08:45:28.011Z,1009.82
2023-03-03T08:50:27.551Z,1009.92
2023-03-03T08:55:27.529Z,1009.92
2023-03-03T09:00:27.375Z,1009.81
2023-03-03T09:05:27.338Z,1009.87
2023-03-03T09:10:27.264Z,1009.95
2023-03-03T09:15:27.241Z,1009.93
2023-03-03T09:20:27.134Z,1009.85
2023-03-03T09:25:27.128Z,1010.03
2023-03-03T09:30:27.010Z,1010.02
2023-03-03T09:35:26.974Z,1010.02
2023-03-03T09:40:27.041Z,1010.18
2023-03-03T09:45:26.915Z,1010.29
2023-03-03T09:50:27.077Z,1010.29
2023-03-03T09:55:26.680Z,1010.40
2023-03-03T10:00:26.617Z,1010.41
2023-03-03T10:05:26.603Z,1010.28
2023-03-03T10:10:26.580Z,1010.30
2023-03-03T10:15:26.472Z,1010.33
2023-03-03T10:20:26.366Z,1010.42
2023-03-03T10:25:26.322Z,1010.50
2023-03-03T10:30:38.957Z,1010.42
2023-03-03T10:35:27.254Z,1010.42
2023-03-03T10:40:26.118Z,1010.38
2023-03-03T10:45:26.020Z,1010.38
2023-03-03T10:50:26.000Z,1010.37
2023-03-03T10:55:25.891Z,1010.39
2023-03-03T11:00:25.827Z,1010.51
2023-03-03T11:05:25.777Z,1010.43
2023-03-03T11:10:25.718Z,1010.50
2023-03-03T11:15:25.668Z,1010.38
2023-03-03T11:20:25.565Z,1010.42
2023-03-03T11:25:25.598Z,1010.31
2023-03-03T11:30:25.444Z,1010.40
2023-03-03T11:35:25.412Z,1010.36
2023-03-03T11:40:25.294Z,1010.27
2023-03-03T11:45:25.262Z,1010.27
2023-03-03T11:50:25.169Z,1010.27
2023-03-03T11:55:25.114Z,1010.23
2023-03-03T12:00:25.051Z,1010.22
2023-03-03T12:05:25.018Z,1010.16
2023-03-03T12:10:24.993Z,1010.08
2023-03-03T12:15:24.908Z,1010.16
2023-03-03T12:20:24.843Z,1010.15
2023-03-03T12:25:24.830Z,1010.05
2023-03-03T12:30:24.713Z,1009.95
2023-03-03T12:35:24.678Z,1009.89
2023-03-03T12:40:24.560Z,1009.90
2023-03-03T12:45:24.511Z,1009.82
2023-03-03T12:50:24.497Z,1009.79
2023-03-03T12:55:24.468Z,1009.69
2023-03-03T13:00:24.448Z,1009.67
2023-03-03T13:05:24.273Z,1009.64
2023-03-03T13:10:24.195Z,1009.73
2023-03-03T13:15:31.621Z,1009.74
2023-03-03T13:20:25.085Z,1009.79
2023-03-03T13:25:24.066Z,1009.72
2023-03-03T13:30:23.944Z,1009.67
2023-03-03T13:35:23.962Z,1009.60
2023-03-03T13:40:23.805Z,1009.51
2023-03-03T13:45:23.868Z,1009.55
2023-03-03T13:50:23.807Z,1009.53
2023-03-03T13:55:23.621Z,1009.49
2023-03-03T14:00:23.628Z,1009.54
2023-03-03T14:05:23.515Z,1009.41
2023-03-03T14:10:23.601Z,1009.31
2023-03-03T14:15:23.327Z,1009.31
2023-03-03T14:20:23.302Z,1009.31
2023-03-03T14:25:23.203Z,1009.17
2023-03-03T14:30:23.262Z,1009.14
2023-03-03T14:35:23.234Z,1009.17
2023-03-03T14:40:23.110Z,1009.06
2023-03-03T14:45:29.549Z,1009.08
2023-03-03T14:50:24.171Z,1009.01
2023-03-03T14:55:22.896Z,1009.10
2023-03-03T15:00:23.027Z,1008.99
2023-03-03T15:05:22.730Z,1009.10
2023-03-03T15:10:22.724Z,1009.02
2023-03-03T15:15:22.639Z,1009.05
2023-03-03T15:20:22.568Z,1009.18
2023-03-03T15:25:24.114Z,1009.08
2023-03-03T15:30:22.398Z,1008.97
2023-03-03T15:35:22.339Z,1008.95
2023-03-03T15:40:22.308Z,1009.06
2023-03-03T15:45:22.200Z,1009.00
2023-03-03T15:50:22.160Z,1009.05
2023-03-03T15:55:22.103Z,1009.05
2023-03-03T16:00:21.955Z,1009.13
2023-03-03T16:05:21.928Z,1009.02
2023-03-03T16:10:21.874Z,1008.97
2023-03-03T16:15:21.842Z,1009.06
2023-03-03T16:20:21.695Z,1008.90
2023-03-03T16:25:21.631Z,1009.11
2023-03-03T16:30:21.706Z,1009.02
2023-03-03T16:35:21.593Z,1009.09
2023-03-03T16:40:21.484Z,1009.06
2023-03-03T16:45:22.451Z,1009.10
2023-03-03T16:50:21.345Z,1009.14
2023-03-03T16:55:21.318Z,1009.03
2023-03-03T17:00:21.211Z,1009.09
2023-03-03T17:05:21.173Z,1009.08
2023-03-03T17:10:21.096Z,1009.03
2023-03-03T17:15:21.045Z,1009.17
2023-03-03T17:20:20.949Z,1009.11
2023-03-03T17:25:20.876Z,1008.99
2023-03-03T17:30:22.315Z,1009.14
2023-03-03T17:35:20.813Z,1009.20
2023-03-03T17:40:20.696Z,1009.17
2023-03-03T17:45:20.619Z,1009.25
2023-03-03T17:50:20.727Z,1009.23
2023-03-03T17:55:20.481Z,1009.19
2023-03-03T18:00:20.416Z,1009.19
2023-03-03T18:05:20.426Z,1009.14
2023-03-03T18:10:20.322Z,1009.15
2023-03-03T18:15:20.240Z,1009.23
2023-03-03T18:20:20.279Z,1009.23
2023-03-03T18:25:20.148Z,1009.17
2023-03-03T18:30:20.089Z,1009.17
2023-03-03T18:35:20.048Z,1009.18
2023-03-03T18:40:19.970Z,1009.23
2023-03-03T18:45:19.979Z,1009.30
2023-03-03T18:50:19.900Z,1009.25
2023-03-03T18:55:19.908Z,1009.30
2023-03-03T19:00:19.668Z,1009.24
2023-03-03T19:05:19.721Z,1009.21
2023-03-03T19:10:19.749Z,1009.31
2023-03-03T19:15:19.621Z,1009.29
2023-03-03T19:20:19.631Z,1009.26
2023-03-03T19:25:19.550Z,1009.26
2023-03-03T19:30:19.258Z,1009.31
2023-03-03T19:35:19.322Z,1009.27
2023-03-03T19:40:19.174Z,1009.21
2023-03-03T19:45:19.105Z,1009.20
2023-03-03T19:50:19.082Z,1009.30
2023-03-03T19:55:18.933Z,1009.19
2023-03-03T20:00:19.203Z,1009.24
2023-03-03T20:05:18.980Z,1009.15
2023-03-03T20:10:18.931Z,1009.30
2023-03-03T20:15:18.813Z,1009.17
2023-03-03T20:20:18.824Z,1009.19
2023-03-03T20:25:18.623Z,1009.13
2023-03-03T20:30:18.598Z,1009.15
2023-03-03T20:35:18.535Z,1008.99
2023-03-03T20:40:18.448Z,1009.01
2023-03-03T20:45:18.377Z,1008.97
2023-03-03T20:50:18.322Z,1009.01
2023-03-03T20:55:18.180Z,1009.01
2023-03-03T21:00:18.248Z,1008.83
2023-03-03T21:05:18.040Z,1008.88
2023-03-03T21:10:18.145Z,1008.78
2023-03-03T21:15:17.908Z,1008.74
2023-03-03T21:20:17.870Z,1008.70
2023-03-03T21:25:17.812Z,1008.73
2023-03-03T21:30:17.735Z,1008.61
2023-03-03T21:35:17.670Z,1008.56
2023-03-03T21:40:17.732Z,1008.65
2023-03-03T21:45:17.527Z,1008.54
2023-03-03T21:50:17.477Z,1008.57
2023-03-03T21:55:17.632Z,1008.54
2023-03-03T22:00:17.907Z,1008.61
2023-03-03T22:05:17.322Z,1008.52
2023-03-03T22:10:17.302Z,1008.51
2023-03-03T22:15:17.212Z,1008.50
2023-03-03T22:20:17.203Z,1008.49
2023-03-03T22:25:17.034Z,1008.47
2023-03-03T22:30:17.022Z,1008.41
2023-03-03T22:35:16.947Z,1008.40
2023-03-03T22:40:16.885Z,1008.28
2023-03-03T22:45:17.587Z,1008.29
2023-03-03T22:50:16.857Z,1008.27
2023-03-03T22:55:16.652Z,1008.31
2023-03-03T23:00:16.734Z,1008.24
2023-03-03T23:05:16.705Z,1008.10
2023-03-03T23:10:16.556Z,1008.00
2023-03-03T23:15:16.402Z,1008.06
2023-03-03T23:20:16.329Z,1008.01
2023-03-03T23:25:16.274Z,1007.84
2023-03-03T23:30:16.214Z,1007.88
2023-03-03T23:35:16.165Z,1007.88
2023-03-03T23:40:16.429Z,1007.87
2023-03-03T23:45:16.139Z,1007.81
2023-03-03T23:50:15.946Z,1007.78
2023-03-03T23:55:15.876Z,1007.81
